Time;durP1;ratioP1;P1;durP2;ratioP2;P2;SDS_P1;SDS_P2;PMS_P1;PMS_P2;Temp;Humidity;BMP_temperature;BMP_pressure;BME280_temperature;BME280_humidity;BME280_pressure;Samples;Min_cycle;Max_cycle;Signal;HPM_P1;HPM_P2
2022/03/02 00:01:52;;;;;;;7.43;6.82;;;10.10;69.30;;;;;;5073802;28;20024;-93
2022/03/02 00:04:19;;;;;;;6.88;6.20;;;10.10;69.40;;;;;;5074795;28;20032;-92
2022/03/02 00:06:45;;;;;;;8.32;7.53;;;10.00;69.20;;;;;;5074437;28;20033;-92
2022/03/02 00:09:11;;;;;;;7.32;6.63;;;10.00;69.20;;;;;;5074171;28;20036;-92
2022/03/02 00:11:38;;;;;;;7.40;6.80;;;10.00;69.20;;;;;;5056414;28;20028;-91
2022/03/02 00:14:05;;;;;;;7.38;6.78;;;10.00;69.20;;;;;;5074178;28;20024;-91
2022/03/02 00:16:33;;;;;;;7.72;7.03;;;10.00;69.20;;;;;;5076791;28;20506;-91
2022/03/02 00:19:00;;;;;;;6.97;6.38;;;10.00;69.20;;;;;;5094895;28;20368;-91
2022/03/02 00:21:26;;;;;;;7.55;6.90;;;10.00;69.30;;;;;;5057742;28;20025;-91
2022/03/02 00:23:52;;;;;;;7.05;6.45;;;10.00;69.20;;;;;;5074165;28;20028;-93
2022/03/02 00:26:18;;;;;;;7.63;6.93;;;10.00;69.30;;;;;;5074343;28;20027;-90
2022/03/02 00:28:45;;;;;;;7.32;6.63;;;10.00;69.20;;;;;;5053859;28;20135;-91
2022/03/02 00:31:11;;;;;;;7.10;6.50;;;10.10;69.40;;;;;;5054116;28;20035;-90
2022/03/02 00:33:38;;;;;;;7.18;6.57;;;10.00;69.20;;;;;;5054815;28;20303;-91
2022/03/02 00:36:04;;;;;;;7.43;6.82;;;10.10;69.40;;;;;;5073902;28;20132;-92
2022/03/02 00:38:30;;;;;;;8.20;7.60;;;10.10;69.40;;;;;;5077420;28;20046;-89
2022/03/02 00:40:56;;;;;;;6.80;6.20;;;10.00;69.30;;;;;;5074361;28;20506;-90
2022/03/02 00:43:23;;;;;;;7.20;6.60;;;10.00;69.20;;;;;;5091132;28;20024;-89
2022/03/02 00:45:49;;;;;;;7.70;7.00;;;10.10;69.40;;;;;;5089885;28;20036;-88
2022/03/02 00:48:16;;;;;;;8.07;7.38;;;10.10;69.40;;;;;;5089584;28;20865;-88
2022/03/02 00:50:42;;;;;;;7.43;6.80;;;10.10;69.40;;;;;;5071672;28;20093;-85
2022/03/02 00:53:09;;;;;;;8.00;7.30;;;10.10;69.40;;;;;;5089662;28;20024;-87
2022/03/02 00:55:36;;;;;;;7.72;7.10;;;10.00;69.30;;;;;;5089333;28;20036;-86
2022/03/02 00:58:05;;;;;;;7.40;6.72;;;10.00;69.30;;;;;;5070181;28;20051;-89
2022/03/02 01:00:31;;;;;;;7.60;7.00;;;10.10;69.50;;;;;;5052122;28;20056;-88
2022/03/02 01:02:58;;;;;;;7.55;6.95;;;10.10;69.50;;;;;;5052668;28;20025;-86
2022/03/02 01:05:24;;;;;;;7.70;7.10;;;10.10;69.50;;;;;;5070661;28;20028;-88
2022/03/02 01:07:51;;;;;;;6.95;6.35;;;10.10;69.50;;;;;;5069991;28;20129;-86
2022/03/02 01:10:17;;;;;;;7.78;7.07;;;10.00;69.30;;;;;;5070068;28;20040;-88
2022/03/02 01:12:43;;;;;;;7.85;7.15;;;10.00;69.30;;;;;;5052094;28;20656;-88
2022/03/02 01:15:11;;;;;;;7.90;6.40;;;10.10;69.50;;;;;;5069437;28;20354;-90
2022/03/02 01:17:38;;;;;;;7.50;6.82;;;10.10;70.00;;;;;;5035954;28;20135;-91
2022/03/02 01:20:06;;;;;;;7.70;7.10;;;10.10;69.50;;;;;;5070338;28;20032;-90
2022/03/02 01:22:33;;;;;;;7.95;7.25;;;10.00;69.30;;;;;;5070125;28;20024;-89
2022/03/02 01:24:59;;;;;;;8.02;7.35;;;10.00;69.30;;;;;;5052239;28;20055;-89
2022/03/02 01:27:25;;;;;;;8.05;7.35;;;10.00;69.40;;;;;;5052945;28;20480;-90
2022/03/02 01:29:51;;;;;;;7.30;6.70;;;10.00;69.40;;;;;;5072009;28;20047;-88
2022/03/02 01:32:18;;;;;;;7.30;6.70;;;10.00;69.40;;;;;;5070278;28;20112;-89
2022/03/02 01:34:44;;;;;;;7.65;6.93;;;10.00;69.40;;;;;;5069285;28;20031;-89
2022/03/02 01:37:10;;;;;;;8.00;7.30;;;10.00;69.40;;;;;;5070174;28;20028;-91
2022/03/02 01:39:37;;;;;;;8.13;7.43;;;10.00;69.40;;;;;;5088582;28;20111;-91
2022/03/02 01:42:05;;;;;;;8.27;7.57;;;10.00;69.40;;;;;;5076288;28;20038;-90
2022/03/02 01:44:32;;;;;;;8.77;7.93;;;10.00;69.50;;;;;;5057715;28;20028;-91
2022/03/02 01:46:59;;;;;;;7.75;7.00;;;10.00;69.50;;;;;;5073555;28;20475;-90
2022/03/02 01:49:25;;;;;;;8.10;7.40;;;10.00;69.50;;;;;;5078254;28;20037;-90
2022/03/02 01:51:51;;;;;;;8.20;7.40;;;10.00;69.50;;;;;;5071321;28;20028;-92
2022/03/02 01:54:18;;;;;;;8.13;7.43;;;10.00;69.50;;;;;;5044739;28;20040;-89
2022/03/02 01:56:44;;;;;;;7.75;7.07;;;10.00;69.50;;;;;;5055440;28;20047;-88
2022/03/02 01:59:10;;;;;;;8.35;7.65;;;9.90;69.40;;;;;;5089276;28;20070;-87
2022/03/02 02:01:41;;;;;;;7.65;7.05;;;10.00;69.50;;;;;;5088483;28;20062;-89
2022/03/02 02:04:07;;;;;;;8.77;7.97;;;10.00;69.50;;;;;;5088897;28;20035;-90
2022/03/02 02:06:34;;;;;;;8.50;7.60;;;10.00;69.50;;;;;;5089335;28;20186;-88
2022/03/02 02:09:02;;;;;;;8.88;8.05;;;10.00;69.50;;;;;;5061807;28;20044;-90
2022/03/02 02:11:30;;;;;;;7.88;7.18;;;10.00;69.50;;;;;;5069234;28;20059;-88
2022/03/02 02:13:56;;;;;;;8.15;7.45;;;10.00;69.50;;;;;;5050634;28;20534;-88
2022/03/02 02:16:23;;;;;;;9.82;8.93;;;10.00;69.50;;;;;;5050792;28;20035;-88
2022/03/02 02:18:50;;;;;;;8.30;7.68;;;9.90;69.40;;;;;;5057734;28;20181;-88
2022/03/02 02:21:18;;;;;;;8.98;8.18;;;9.90;69.40;;;;;;5058016;28;20020;-89
2022/03/02 02:23:44;;;;;;;9.10;8.35;;;10.00;69.60;;;;;;5073884;28;20391;-88
2022/03/02 02:26:11;;;;;;;8.50;7.80;;;9.90;69.40;;;;;;5088258;28;20051;-88
2022/03/02 02:28:37;;;;;;;8.68;7.95;;;9.90;69.40;;;;;;5050276;28;20028;-89
2022/03/02 02:31:04;;;;;;;8.05;7.35;;;10.00;69.60;;;;;;5069824;28;20131;-89
2022/03/02 02:33:30;;;;;;;8.93;8.10;;;9.90;69.50;;;;;;5051624;28;20028;-91
2022/03/02 02:35:57;;;;;;;9.02;8.23;;;10.00;69.60;;;;;;5069545;28;20028;-88
2022/03/02 02:38:24;;;;;;;9.73;8.88;;;9.90;69.50;;;;;;5074457;28;20670;-91
2022/03/02 02:40:52;;;;;;;8.85;8.05;;;9.90;69.50;;;;;;5073607;28;20028;-90
2022/03/02 02:43:22;;;;;;;9.18;8.35;;;9.90;69.50;;;;;;5090694;28;20119;-92
2022/03/02 02:45:49;;;;;;;7.88;7.18;;;9.90;69.50;;;;;;5085694;28;20032;-90
2022/03/02 02:48:15;;;;;;;9.18;8.48;;;9.90;69.50;;;;;;5073562;28;20051;-92
2022/03/02 02:50:41;;;;;;;8.93;8.13;;;9.90;69.50;;;;;;5073019;28;20041;-91
2022/03/02 02:53:10;;;;;;;9.13;8.32;;;9.90;69.50;;;;;;5073440;28;20029;-90
2022/03/02 02:55:39;;;;;;;8.77;7.97;;;9.90;69.50;;;;;;5073667;28;20471;-91
2022/03/02 02:58:06;;;;;;;9.25;8.45;;;9.90;69.50;;;;;;5074015;28;20029;-92
2022/03/02 03:00:35;;;;;;;8.35;7.65;;;9.90;69.50;;;;;;5073789;28;20585;-92
2022/03/02 03:03:02;;;;;;;8.63;7.93;;;9.90;69.50;;;;;;5056109;28;20040;-92
2022/03/02 03:05:31;;;;;;;8.70;7.90;;;9.90;69.50;;;;;;5059043;28;20065;-91
2022/03/02 03:08:00;;;;;;;9.27;8.48;;;10.00;69.70;;;;;;5059947;28;20025;-91
2022/03/02 03:10:27;;;;;;;8.43;7.72;;;9.90;69.50;;;;;;5078287;28;20068;-92
2022/03/02 03:12:53;;;;;;;9.30;8.50;;;10.00;69.70;;;;;;5060321;28;20020;-92
2022/03/02 03:15:21;;;;;;;8.73;8.02;;;9.90;69.50;;;;;;5078126;28;20479;-91
2022/03/02 03:17:48;;;;;;;10.27;9.38;;;9.90;69.50;;;;;;5060309;28;20029;-92
2022/03/02 03:20:17;;;;;;;8.73;8.02;;;9.90;69.60;;;;;;5042714;28;20028;-91
2022/03/02 03:22:43;;;;;;;9.10;8.32;;;9.90;69.60;;;;;;5042668;28;20024;-90
2022/03/02 03:25:12;;;;;;;9.48;8.57;;;9.90;69.60;;;;;;5076606;28;20605;-89
2022/03/02 03:27:39;;;;;;;9.90;9.10;;;9.90;69.60;;;;;;5076001;28;20090;-91
2022/03/02 03:30:08;;;;;;;9.50;8.60;;;9.90;69.60;;;;;;5059409;28;20064;-91
2022/03/02 03:32:34;;;;;;;9.60;8.73;;;9.90;69.60;;;;;;5059039;28;20115;-91
2022/03/02 03:35:01;;;;;;;9.23;8.43;;;9.90;69.70;;;;;;5058842;28;20479;-90
2022/03/02 03:37:27;;;;;;;11.38;10.27;;;9.90;69.60;;;;;;5058038;28;20470;-90
2022/03/02 03:39:53;;;;;;;9.80;8.90;;;9.90;69.60;;;;;;5076346;28;20414;-89
2022/03/02 03:42:20;;;;;;;9.52;8.73;;;9.90;69.60;;;;;;5059517;28;20493;-90
2022/03/02 03:44:46;;;;;;;10.32;9.40;;;9.90;69.70;;;;;;5059583;28;20040;-92
2022/03/02 03:47:13;;;;;;;9.93;9.13;;;9.90;69.70;;;;;;5076720;28;20276;-91
2022/03/02 03:49:39;;;;;;;9.90;9.00;;;9.90;69.70;;;;;;5059463;28;20507;-92
2022/03/02 03:52:05;;;;;;;10.32;9.40;;;9.90;69.70;;;;;;5075617;28;20033;-89
2022/03/02 03:54:32;;;;;;;10.00;9.10;;;9.90;69.70;;;;;;5058818;28;20033;-91
2022/03/02 03:56:58;;;;;;;9.52;8.73;;;9.90;69.70;;;;;;5076589;28;20056;-90
2022/03/02 03:59:24;;;;;;;9.50;8.70;;;9.90;69.70;;;;;;5058572;28;20060;-89
2022/03/02 04:01:50;;;;;;;10.68;9.68;;;9.90;69.70;;;;;;5075085;28;20028;-88
2022/03/02 04:04:16;;;;;;;9.73;8.82;;;9.90;69.70;;;;;;5075580;28;20028;-90
2022/03/02 04:06:42;;;;;;;9.80;8.98;;;9.90;69.70;;;;;;5077626;28;20031;-91
2022/03/02 04:09:08;;;;;;;10.30;9.40;;;9.90;69.70;;;;;;5075620;28;20044;-91
2022/03/02 04:11:34;;;;;;;10.77;9.77;;;9.90;69.70;;;;;;5058786;28;20036;-88
2022/03/02 04:14:00;;;;;;;10.68;9.68;;;9.90;69.70;;;;;;5075804;28;20037;-89
2022/03/02 04:16:26;;;;;;;10.30;9.30;;;9.90;69.70;;;;;;5074681;28;20501;-91
2022/03/02 04:18:52;;;;;;;10.43;9.43;;;9.90;69.80;;;;;;5075896;28;20086;-89
2022/03/02 04:21:18;;;;;;;10.80;9.80;;;9.90;69.80;;;;;;5076148;28;20035;-90
2022/03/02 04:23:44;;;;;;;10.05;9.15;;;9.90;69.80;;;;;;5076506;28;20475;-88
2022/03/02 04:26:11;;;;;;;11.55;10.43;;;9.90;69.80;;;;;;5056837;28;20483;-89
2022/03/02 04:28:37;;;;;;;11.15;10.15;;;9.90;69.80;;;;;;5058505;28;20035;-92
2022/03/02 04:31:03;;;;;;;10.82;9.85;;;9.90;69.80;;;;;;5078742;28;20040;-92
2022/03/02 04:33:30;;;;;;;10.75;9.75;;;9.90;69.80;;;;;;5078822;28;20051;-91
2022/03/02 04:35:56;;;;;;;10.82;9.93;;;9.90;69.80;;;;;;5078212;28;20407;-90
2022/03/02 04:38:22;;;;;;;10.02;9.13;;;9.90;69.80;;;;;;5059619;28;20032;-91
2022/03/02 04:40:48;;;;;;;9.88;8.93;;;9.90;69.90;;;;;;5076542;28;20382;-92
2022/03/02 04:43:14;;;;;;;10.65;9.65;;;9.90;69.90;;;;;;5075978;28;20032;-90
2022/03/02 04:45:40;;;;;;;10.40;9.40;;;9.90;69.90;;;;;;5075771;28;20028;-92
2022/03/02 04:48:08;;;;;;;10.55;9.55;;;9.90;69.90;;;;;;5074446;28;20055;-91
2022/03/02 04:50:35;;;;;;;11.23;10.20;;;9.90;69.90;;;;;;5057304;28;20036;-92
2022/03/02 04:53:01;;;;;;;11.38;10.38;;;9.90;69.90;;;;;;5074519;28;20123;-89
2022/03/02 04:55:27;;;;;;;11.52;10.52;;;9.90;69.90;;;;;;5055867;28;20040;-89
2022/03/02 04:57:56;;;;;;;10.88;9.88;;;9.90;69.90;;;;;;5056702;28;20036;-90
2022/03/02 05:00:25;;;;;;;10.70;9.70;;;9.90;69.90;;;;;;5056009;28;20025;-89
2022/03/02 05:02:53;;;;;;;11.82;10.73;;;9.90;69.90;;;;;;5055983;28;20103;-91
2022/03/02 05:05:21;;;;;;;10.63;9.73;;;9.90;69.90;;;;;;5056654;28;20067;-90
2022/03/02 05:07:48;;;;;;;10.50;9.50;;;9.90;69.90;;;;;;5074237;28;20098;-91
2022/03/02 05:10:16;;;;;;;12.23;11.02;;;9.90;69.90;;;;;;5073454;28;20036;-89
2022/03/02 05:12:43;;;;;;;11.70;10.60;;;9.90;69.90;;;;;;5056438;28;20031;-89
2022/03/02 05:15:10;;;;;;;12.02;10.90;;;9.90;70.00;;;;;;5055922;28;20036;-91
2022/03/02 05:17:37;;;;;;;11.80;10.60;;;9.90;70.00;;;;;;5075043;28;20024;-90
2022/03/02 05:20:04;;;;;;;12.60;11.32;;;9.90;70.00;;;;;;5057175;28;20035;-90
2022/03/02 05:22:30;;;;;;;11.75;10.65;;;9.90;70.00;;;;;;5057661;28;20032;-89
2022/03/02 05:24:56;;;;;;;13.00;11.70;;;9.90;70.00;;;;;;5057942;28;20035;-90
2022/03/02 05:27:24;;;;;;;11.82;10.73;;;9.90;70.00;;;;;;5075448;28;20024;-90
2022/03/02 05:29:50;;;;;;;12.75;11.55;;;9.90;70.50;;;;;;5077067;28;20036;-89
2022/03/02 05:32:16;;;;;;;12.13;10.98;;;9.90;70.00;;;;;;5060106;28;20028;-90
2022/03/02 05:34:43;;;;;;;13.15;11.95;;;9.90;70.10;;;;;;5077219;28;20029;-91
2022/03/02 05:37:09;;;;;;;13.63;12.30;;;9.90;70.00;;;;;;5076424;28;20028;-89
2022/03/02 05:39:35;;;;;;;12.63;11.35;;;9.90;70.00;;;;;;5075847;28;20095;-92
2022/03/02 05:42:02;;;;;;;13.02;11.80;;;9.90;70.00;;;;;;5075206;28;20636;-90
2022/03/02 05:44:28;;;;;;;12.80;11.63;;;9.90;70.10;;;;;;5056522;28;20040;-86
2022/03/02 05:46:55;;;;;;;13.05;11.75;;;9.90;70.10;;;;;;5055125;28;20036;-86
2022/03/02 05:49:21;;;;;;;12.80;11.60;;;10.00;70.30;;;;;;5051714;28;20040;-89
2022/03/02 05:51:47;;;;;;;14.50;12.45;;;10.00;70.20;;;;;;5053459;28;20044;-92
2022/03/02 05:54:13;;;;;;;13.48;12.15;;;9.90;70.10;;;;;;5054476;28;20054;-90
2022/03/02 05:56:40;;;;;;;15.10;12.73;;;10.00;70.30;;;;;;5053016;28;20062;-89
2022/03/02 05:59:11;;;;;;;13.80;12.45;;;10.00;70.20;;;;;;5083549;28;20036;-88
2022/03/02 06:01:38;;;;;;;14.73;13.13;;;10.00;70.30;;;;;;5090185;28;20494;-89
2022/03/02 06:04:08;;;;;;;14.07;12.70;;;10.00;70.20;;;;;;5090374;28;20035;-88
2022/03/02 06:06:35;;;;;;;14.70;12.70;;;10.00;70.20;;;;;;5072634;28;20551;-85
2022/03/02 06:09:06;;;;;;;14.90;13.45;;;10.00;70.20;;;;;;5084059;28;20032;-87
2022/03/02 06:11:34;;;;;;;13.77;12.43;;;10.00;70.20;;;;;;5068384;28;20036;-88
2022/03/02 06:14:00;;;;;;;15.50;14.02;;;10.00;70.20;;;;;;5068238;28;20107;-88
2022/03/02 06:16:26;;;;;;;14.38;12.90;;;10.00;70.20;;;;;;5050616;28;20137;-85
2022/03/02 06:18:53;;;;;;;15.10;13.60;;;10.00;70.20;;;;;;5079471;28;20028;-90
2022/03/02 06:21:24;;;;;;;15.02;13.30;;;10.00;70.20;;;;;;5088943;28;20506;-87
2022/03/02 06:23:50;;;;;;;16.30;14.63;;;10.00;70.20;;;;;;5071030;28;20020;-92
2022/03/02 06:26:22;;;;;;;16.27;14.60;;;10.10;70.40;;;;;;5058378;28;20584;-76
2022/03/02 06:28:49;;;;;;;15.68;14.10;;;10.10;70.40;;;;;;5076072;28;20032;-78
2022/03/02 06:31:15;;;;;;;16.90;15.13;;;10.00;70.20;;;;;;5067669;28;20036;-81
2022/03/02 06:33:41;;;;;;;16.90;14.48;;;10.00;70.30;;;;;;5049224;28;20427;-82
2022/03/02 06:36:07;;;;;;;15.05;13.43;;;10.00;70.30;;;;;;5050044;28;20033;-81
2022/03/02 06:38:33;;;;;;;16.23;14.45;;;10.10;70.50;;;;;;5049523;28;20021;-81
2022/03/02 06:41:24;;;;;;;17.08;14.52;;;10.10;70.50;;;;;;5067250;28;20116;-83
2022/03/02 06:44:18;;;;;;;18.02;15.23;;;10.10;70.60;;;;;;5050507;28;20148;-81
2022/03/02 06:46:55;;;;;;;17.67;14.82;;;10.10;70.50;;;;;;5056157;28;20021;-80
2022/03/02 06:49:26;;;;;;;19.13;14.77;;;10.10;70.50;;;;;;5073080;28;20055;-78
2022/03/02 06:51:59;;;;;;;17.10;14.65;;;10.10;70.50;;;;;;5055978;28;20424;-78
2022/03/02 06:54:30;;;;;;;17.88;15.45;;;10.20;70.60;;;;;;5078414;28;20032;-80
2022/03/02 06:56:59;;;;;;;17.80;15.15;;;10.10;70.50;;;;;;5073454;28;20068;-79
2022/03/02 06:59:54;;;;;;;19.10;15.73;;;10.10;70.40;;;;;;5083808;28;20032;-78
2022/03/02 07:02:40;;;;;;;19.02;15.75;;;10.10;70.50;;;;;;5087011;28;20515;-78
2022/03/02 07:05:08;;;;;;;17.52;14.65;;;10.20;70.60;;;;;;5068357;28;20143;-80
2022/03/02 07:07:34;;;;;;;20.15;16.77;;;10.20;70.60;;;;;;5078978;28;20056;-80
2022/03/02 07:10:01;;;;;;;20.10;15.80;;;10.20;71.10;;;;;;5059079;28;20080;-81
2022/03/02 07:12:28;;;;;;;19.08;15.43;;;10.20;70.60;;;;;;5048867;28;20962;-80
2022/03/02 07:14:54;;;;;;;20.17;16.55;;;10.20;70.60;;;;;;5067459;28;20102;-80
2022/03/02 07:17:22;;;;;;;20.40;17.23;;;10.20;70.60;;;;;;5048986;28;20499;-77
2022/03/02 07:19:49;;;;;;;20.77;18.15;;;10.20;70.60;;;;;;5048250;28;20133;-79
2022/03/02 07:22:21;;;;;;;20.80;17.08;;;10.20;70.60;;;;;;5050282;28;20036;-79
2022/03/02 07:24:53;;;;;;;21.83;16.80;;;10.20;70.70;;;;;;5068801;28;20123;-79
2022/03/02 07:27:20;;;;;;;21.70;17.83;;;10.20;70.60;;;;;;5080779;28;20067;-79
2022/03/02 07:29:49;;;;;;;19.85;17.27;;;10.20;70.60;;;;;;5051091;28;20399;-80
2022/03/02 07:32:22;;;;;;;21.25;16.73;;;10.30;70.80;;;;;;5034849;28;20392;-79
2022/03/02 07:34:53;;;;;;;21.50;16.58;;;10.30;70.80;;;;;;5083412;28;20093;-77
2022/03/02 07:37:20;;;;;;;21.55;17.45;;;10.30;70.80;;;;;;5072538;28;20029;-76
2022/03/02 07:39:46;;;;;;;23.58;17.98;;;10.30;70.80;;;;;;5078509;28;20032;-75
2022/03/02 07:42:12;;;;;;;22.25;17.95;;;10.30;70.80;;;;;;5086373;28;20036;-76
2022/03/02 07:44:38;;;;;;;22.75;17.02;;;10.30;70.80;;;;;;5087047;28;20086;-76
2022/03/02 07:47:04;;;;;;;21.77;17.23;;;10.30;70.80;;;;;;5086925;28;20078;-76
2022/03/02 07:49:31;;;;;;;23.25;17.45;;;10.40;70.90;;;;;;5069500;28;20041;-77
2022/03/02 07:51:59;;;;;;;21.58;17.83;;;10.40;70.90;;;;;;5066906;28;20476;-76
2022/03/02 07:54:30;;;;;;;20.92;16.45;;;10.40;70.90;;;;;;5050025;28;20029;-76
2022/03/02 07:56:57;;;;;;;24.27;18.95;;;10.40;70.90;;;;;;5050397;28;20498;-75
2022/03/02 07:59:23;;;;;;;22.80;17.75;;;10.50;71.00;;;;;;5067680;28;20399;-76
2022/03/02 08:01:50;;;;;;;21.90;17.38;;;10.50;71.00;;;;;;5050400;28;20070;-76
2022/03/02 08:04:16;;;;;;;22.38;17.33;;;10.50;70.90;;;;;;5032976;28;20025;-76
2022/03/02 08:06:43;;;;;;;23.15;18.60;;;10.50;70.90;;;;;;5068223;28;20036;-75
2022/03/02 08:09:10;;;;;;;21.42;18.00;;;10.50;70.90;;;;;;5068295;28;20064;-79
2022/03/02 08:11:38;;;;;;;22.40;18.15;;;10.50;70.90;;;;;;5035580;28;20036;-77
2022/03/02 08:14:05;;;;;;;21.92;17.48;;;10.50;70.90;;;;;;5051917;28;20051;-77
2022/03/02 08:16:32;;;;;;;23.00;18.40;;;10.60;71.10;;;;;;5069724;28;20039;-81
2022/03/02 08:19:01;;;;;;;23.42;17.70;;;10.50;70.90;;;;;;5069817;28;20031;-80
2022/03/02 08:21:30;;;;;;;24.02;18.17;;;10.60;71.10;;;;;;5052289;28;20087;-81
2022/03/02 08:23:58;;;;;;;22.75;18.67;;;10.60;71.00;;;;;;5051644;28;20082;-81
2022/03/02 08:26:26;;;;;;;24.08;19.23;;;10.60;71.00;;;;;;5069989;28;20058;-80
2022/03/02 08:28:56;;;;;;;22.17;17.98;;;10.60;71.00;;;;;;5051243;28;20036;-80
2022/03/02 08:31:24;;;;;;;25.77;19.08;;;10.70;71.20;;;;;;5051879;28;20040;-81
2022/03/02 08:33:51;;;;;;;23.13;18.58;;;10.70;71.10;;;;;;5051756;28;20036;-84
2022/03/02 08:36:21;;;;;;;25.77;19.40;;;10.70;71.10;;;;;;5069966;28;20079;-80
2022/03/02 08:38:51;;;;;;;24.13;19.70;;;10.70;71.10;;;;;;5069464;28;20444;-79
2022/03/02 08:41:19;;;;;;;29.27;19.85;;;10.70;71.10;;;;;;5069705;28;20032;-85
2022/03/02 08:43:47;;;;;;;24.23;18.90;;;10.80;71.20;;;;;;5052523;28;20089;-88
2022/03/02 08:46:13;;;;;;;25.50;18.27;;;10.80;71.20;;;;;;5070354;28;20024;-86
2022/03/02 08:48:40;;;;;;;22.35;17.75;;;10.90;71.30;;;;;;5052227;28;20105;-90
2022/03/02 08:51:06;;;;;;;24.90;18.45;;;10.90;71.20;;;;;;5070350;28;20024;-87
2022/03/02 08:53:33;;;;;;;27.70;20.33;;;10.90;71.20;;;;;;5069475;28;20051;-86
2022/03/02 08:56:03;;;;;;;25.52;20.90;;;10.90;71.10;;;;;;5070376;28;20056;-90
2022/03/02 08:58:30;;;;;;;26.05;19.05;;;11.00;71.20;;;;;;5069474;28;20036;-87
2022/03/02 09:00:59;;;;;;;25.25;19.95;;;11.00;71.20;;;;;;5069455;28;20033;-85
2022/03/02 09:03:26;;;;;;;24.63;18.67;;;11.10;71.30;;;;;;5069617;28;20098;-87
2022/03/02 09:05:53;;;;;;;27.08;19.92;;;11.10;71.20;;;;;;5051477;28;20024;-87
2022/03/02 09:08:19;;;;;;;27.25;19.40;;;11.10;71.20;;;;;;5069089;28;20024;-85
2022/03/02 09:10:46;;;;;;;27.70;21.20;;;11.20;71.40;;;;;;5069071;28;20043;-84
2022/03/02 09:13:13;;;;;;;26.80;20.30;;;11.20;71.30;;;;;;5051171;28;20024;-84
2022/03/02 09:15:42;;;;;;;29.73;22.05;;;11.20;71.40;;;;;;5070235;28;20112;-86
2022/03/02 09:18:08;;;;;;;31.40;21.35;;;11.20;71.20;;;;;;5069214;28;20060;-85
2022/03/02 09:20:34;;;;;;;28.13;21.67;;;11.30;71.40;;;;;;5034865;28;20028;-86
2022/03/02 09:23:04;;;;;;;29.98;23.23;;;11.30;71.40;;;;;;5051312;28;20034;-84
2022/03/02 09:25:32;;;;;;;28.48;21.60;;;11.30;71.40;;;;;;5068872;28;20111;-86
2022/03/02 09:27:58;;;;;;;28.35;21.73;;;11.30;71.30;;;;;;5069008;28;20368;-88
2022/03/02 09:30:24;;;;;;;28.27;22.42;;;11.30;71.30;;;;;;5069385;28;20148;-88
2022/03/02 09:32:55;;;;;;;29.95;20.73;;;11.40;71.40;;;;;;5050148;28;20328;-82
2022/03/02 09:35:21;;;;;;;28.08;22.38;;;11.40;71.40;;;;;;5068112;28;20173;-83
2022/03/02 09:37:53;;;;;;;25.52;18.92;;;11.40;71.40;;;;;;5050433;28;20024;-82
2022/03/02 09:40:28;;;;;;;26.02;17.23;;;11.40;71.50;;;;;;5068066;28;20031;-79
2022/03/02 09:42:54;;;;;;;28.55;19.88;;;11.50;72.10;;;;;;5050823;28;20472;-83
2022/03/02 09:45:22;;;;;;;26.25;19.83;;;11.50;72.10;;;;;;5067977;28;20043;-82
2022/03/02 09:47:53;;;;;;;25.17;19.33;;;11.60;72.30;;;;;;5052407;28;20140;-83
2022/03/02 09:50:21;;;;;;;26.48;18.98;;;11.60;72.20;;;;;;5088662;28;20151;-83
2022/03/02 09:52:49;;;;;;;27.58;21.20;;;11.60;72.20;;;;;;5070385;28;20503;-83
2022/03/02 09:55:21;;;;;;;30.63;21.30;;;11.70;72.30;;;;;;5088449;28;20104;-82
2022/03/02 09:57:53;;;;;;;27.65;21.70;;;11.70;72.30;;;;;;5070072;28;20284;-80
2022/03/02 10:00:21;;;;;;;29.45;21.85;;;11.70;72.20;;;;;;5087711;28;20030;-82
2022/03/02 10:02:51;;;;;;;28.13;20.27;;;11.80;72.30;;;;;;5087953;28;20059;-81
2022/03/02 10:05:23;;;;;;;25.80;19.98;;;11.80;72.30;;;;;;5088200;28;20043;-80
2022/03/02 10:08:07;;;;;;;28.30;22.00;;;11.80;72.30;;;;;;5079423;28;20024;-81
2022/03/02 10:10:39;;;;;;;26.27;20.08;;;11.80;72.30;;;;;;5087420;28;20057;-81
2022/03/02 10:13:11;;;;;;;28.58;19.73;;;11.80;72.20;;;;;;5069729;28;20024;-79
2022/03/02 10:15:39;;;;;;;29.07;20.80;;;11.80;72.20;;;;;;5087333;28;20035;-79
2022/03/02 10:18:08;;;;;;;29.75;21.65;;;11.80;72.10;;;;;;5064613;28;20683;-78
2022/03/02 10:20:36;;;;;;;27.98;21.92;;;11.80;72.10;;;;;;5066704;28;20054;-79
2022/03/02 10:23:32;;;;;;;27.58;21.45;;;11.90;72.30;;;;;;5088341;28;20124;-80
2022/03/02 10:26:08;;;;;;;28.40;20.85;;;11.90;72.20;;;;;;5089272;28;20028;-80
2022/03/02 10:28:44;;;;;;;29.88;22.45;;;11.90;72.20;;;;;;5089257;28;20044;-79
2022/03/02 10:31:23;;;;;;;32.47;22.52;;;11.90;72.20;;;;;;5089755;28;20096;-79
2022/03/02 10:34:05;;;;;;;32.55;23.45;;;11.90;72.20;;;;;;5089220;28;20123;-80
2022/03/02 10:36:39;;;;;;;29.10;21.60;;;11.90;72.20;;;;;;5089363;28;20024;-87
2022/03/02 10:39:07;;;;;;;30.83;23.98;;;11.90;72.10;;;;;;5088361;28;20101;-82
2022/03/02 10:41:37;;;;;;;28.10;21.38;;;11.90;72.00;;;;;;5053277;28;20031;-82
2022/03/02 10:44:28;;;;;;;32.30;22.70;;;12.00;72.10;;;;;;5052964;28;20114;-83
2022/03/02 10:47:02;;;;;;;30.38;22.27;;;12.00;72.00;;;;;;5087911;28;20024;-85
2022/03/02 10:49:29;;;;;;;30.17;22.30;;;12.00;71.90;;;;;;5052695;28;20039;-83
2022/03/02 10:51:58;;;;;;;31.05;22.92;;;12.10;72.00;;;;;;5069284;28;20028;-86
2022/03/02 10:54:26;;;;;;;29.38;21.70;;;12.10;71.90;;;;;;5088220;28;20046;-84
2022/03/02 10:56:53;;;;;;;30.75;22.17;;;12.10;71.90;;;;;;5088260;28;20471;-85
2022/03/02 10:59:24;;;;;;;30.30;21.80;;;12.10;71.80;;;;;;5069567;28;20032;-84
2022/03/02 11:01:52;;;;;;;32.83;24.25;;;12.20;71.90;;;;;;5087531;28;20658;-84
2022/03/02 11:04:20;;;;;;;34.38;24.70;;;12.20;71.90;;;;;;5069026;28;20043;-82
2022/03/02 11:06:46;;;;;;;29.95;23.55;;;12.20;72.40;;;;;;5087998;28;20062;-86
2022/03/02 11:09:16;;;;;;;31.63;22.88;;;12.20;71.90;;;;;;5086865;28;20278;-75
2022/03/02 11:11:42;;;;;;;30.23;23.52;;;12.20;71.80;;;;;;5087191;28;20028;-79
2022/03/02 11:14:09;;;;;;;31.75;23.13;;;12.20;71.70;;;;;;5087129;28;20067;-77
2022/03/02 11:16:36;;;;;;;30.50;23.15;;;12.30;71.80;;;;;;5087134;28;20028;-78
2022/03/02 11:19:16;;;;;;;30.58;22.73;;;12.30;71.80;;;;;;5068413;28;20152;-82
2022/03/02 11:21:43;;;;;;;29.60;23.75;;;12.30;71.70;;;;;;5087060;28;20028;-80
2022/03/02 11:24:15;;;;;;;27.63;21.42;;;12.40;71.80;;;;;;5086632;28;20115;-83
2022/03/02 11:26:44;;;;;;;29.65;21.33;;;12.40;71.70;;;;;;5090296;28;20084;-81
2022/03/02 11:29:15;;;;;;;28.02;22.10;;;12.50;71.80;;;;;;5090346;28;20042;-82
2022/03/02 11:31:50;;;;;;;27.70;21.10;;;12.60;71.80;;;;;;5090599;28;20036;-81
2022/03/02 11:34:16;;;;;;;27.30;20.58;;;12.60;71.60;;;;;;5090404;28;20035;-82
2022/03/02 11:36:48;;;;;;;27.30;20.67;;;12.60;71.50;;;;;;5072864;28;20118;-81
2022/03/02 11:39:16;;;;;;;27.85;20.48;;;12.70;71.60;;;;;;5072327;28;20483;-82
2022/03/02 11:41:44;;;;;;;27.25;21.05;;;12.70;71.50;;;;;;5090793;28;20032;-82
2022/03/02 11:44:38;;;;;;;25.67;20.30;;;12.80;71.60;;;;;;5072385;28;20028;-82
2022/03/02 11:47:07;;;;;;;25.05;20.10;;;12.80;71.60;;;;;;5090545;28;20495;-82
2022/03/02 11:49:50;;;;;;;25.88;18.83;;;12.90;71.60;;;;;;5064030;28;20039;-83
2022/03/02 11:52:19;;;;;;;22.88;18.83;;;13.00;71.70;;;;;;5084161;28;20054;-84
2022/03/02 11:54:52;;;;;;;24.42;18.05;;;13.00;71.60;;;;;;5072458;28;20060;-83
2022/03/02 11:57:21;;;;;;;21.67;17.27;;;13.00;71.50;;;;;;5090231;28;20025;-83
2022/03/02 11:59:48;;;;;;;24.88;19.85;;;13.10;71.50;;;;;;5071592;28;20432;-83
2022/03/02 12:02:22;;;;;;;20.95;17.77;;;13.20;71.60;;;;;;5051949;28;20464;-83
2022/03/02 12:05:03;;;;;;;23.67;17.05;;;13.20;71.40;;;;;;5069719;28;20446;-82
2022/03/02 12:07:41;;;;;;;23.35;17.75;;;13.20;71.40;;;;;;5069517;28;20033;-82
2022/03/02 12:10:31;;;;;;;21.65;16.80;;;13.30;71.40;;;;;;5069934;28;20059;-83
2022/03/02 12:12:58;;;;;;;20.25;16.48;;;13.30;71.40;;;;;;5051842;28;20041;-82
2022/03/02 12:15:40;;;;;;;21.70;17.00;;;13.40;71.50;;;;;;5070448;28;20511;-88
2022/03/02 12:18:08;;;;;;;17.73;14.30;;;13.50;71.60;;;;;;5050820;28;20511;-84
2022/03/02 12:20:44;;;;;;;17.73;13.57;;;13.70;71.70;;;;;;5051306;28;20032;-84
2022/03/02 12:23:10;;;;;;;17.63;13.32;;;13.80;71.60;;;;;;5073645;28;20020;-84
2022/03/02 12:25:43;;;;;;;17.85;14.23;;;14.00;71.70;;;;;;5079991;28;20035;-83
2022/03/02 12:28:14;;;;;;;16.20;14.00;;;14.00;71.50;;;;;;5077501;28;20126;-83
2022/03/02 12:30:40;;;;;;;16.17;13.18;;;14.10;71.60;;;;;;5069532;28;20041;-77
2022/03/02 12:33:07;;;;;;;14.02;12.52;;;14.10;71.50;;;;;;5072094;28;21709;-77
2022/03/02 12:35:33;;;;;;;14.50;10.90;;;14.10;71.60;;;;;;5089535;28;20129;-79
2022/03/02 12:38:04;;;;;;;13.23;11.38;;;14.10;71.80;;;;;;5078057;28;20326;-79
2022/03/02 12:40:33;;;;;;;15.55;10.88;;;14.20;72.30;;;;;;5066042;28;20123;-79
2022/03/02 12:42:59;;;;;;;16.58;11.27;;;14.20;72.30;;;;;;5051163;28;20384;-81